createdAt,value
2023-03-01T00:01:09.101Z,13.66
2023-03-01T00:03:36.070Z,13.63
2023-03-01T00:06:04.155Z,13.63
2023-03-01T00:08:31.440Z,13.63
2023-03-01T00:11:29.224Z,13.62
2023-03-01T00:13:59.033Z,13.62
2023-03-01T00:16:39.735Z,13.60
2023-03-01T00:19:07.848Z,13.59
2023-03-01T00:21:36.327Z,13.60
2023-03-01T00:24:03.647Z,13.61
2023-03-01T00:26:31.237Z,13.61
2023-03-01T00:28:59.304Z,13.61
2023-03-01T00:31:31.418Z,13.59
2023-03-01T00:34:00.874Z,13.59
2023-03-01T00:36:33.374Z,13.58
2023-03-01T00:39:00.862Z,13.57
2023-03-01T00:41:27.979Z,13.57
2023-03-01T00:43:55.696Z,13.55
2023-03-01T00:46:27.551Z,13.54
2023-03-01T00:48:55.132Z,13.59
2023-03-01T00:51:24.962Z,13.57
2023-03-01T00:53:53.346Z,13.56
2023-03-01T00:56:20.268Z,13.55
2023-03-01T00:58:47.137Z,13.54
2023-03-01T01:01:22.416Z,13.53
2023-03-01T01:03:52.550Z,13.54
2023-03-01T01:06:22.624Z,13.54
2023-03-01T01:08:50.752Z,13.52
2023-03-01T01:11:17.852Z,13.54
2023-03-01T01:13:46.764Z,13.53
2023-03-01T01:16:14.242Z,13.50
2023-03-01T01:18:41.691Z,13.52
2023-03-01T01:21:12.157Z,13.51
2023-03-01T01:23:40.611Z,13.49
2023-03-01T01:26:20.293Z,13.51
2023-03-01T01:28:47.739Z,13.48
2023-03-01T01:31:15.200Z,13.49
2023-03-01T01:33:42.412Z,13.46
2023-03-01T01:36:09.671Z,13.47
2023-03-01T01:38:38.665Z,13.47
2023-03-01T01:41:07.146Z,13.47
2023-03-01T01:43:42.072Z,13.46
2023-03-01T01:46:18.131Z,13.46
2023-03-01T01:48:49.243Z,13.47
2023-03-01T01:51:24.743Z,13.46
2023-03-01T01:53:56.445Z,13.46
2023-03-01T01:56:25.535Z,13.47
2023-03-01T01:58:52.970Z,13.44
2023-03-01T02:01:19.882Z,13.44
2023-03-01T02:03:48.012Z,13.45
2023-03-01T02:06:30.359Z,13.42
2023-03-01T02:09:04.246Z,13.43
2023-03-01T02:11:32.631Z,13.40
2023-03-01T02:13:59.642Z,13.39
2023-03-01T02:16:27.388Z,13.41
2023-03-01T02:18:54.577Z,13.41
2023-03-01T02:21:53.626Z,13.42
2023-03-01T02:24:27.494Z,13.41
2023-03-01T02:26:56.487Z,13.39
2023-03-01T02:29:28.014Z,13.39
2023-03-01T02:31:57.839Z,13.37
2023-03-01T02:34:30.246Z,13.36
2023-03-01T02:37:05.723Z,13.35
2023-03-01T02:39:49.021Z,13.37
2023-03-01T02:42:26.873Z,13.37
2023-03-01T02:44:54.845Z,13.35
2023-03-01T02:47:21.639Z,13.36
2023-03-01T02:49:48.541Z,13.36
2023-03-01T02:52:49.125Z,13.37
2023-03-01T02:55:17.711Z,13.35
2023-03-01T02:57:47.489Z,13.33
2023-03-01T03:00:21.501Z,13.34
2023-03-01T03:02:53.337Z,13.31
2023-03-01T03:05:26.821Z,13.31
2023-03-01T03:07:53.561Z,13.32
2023-03-01T03:10:32.382Z,13.30
2023-03-01T03:13:05.576Z,13.28
2023-03-01T03:15:32.423Z,13.27
2023-03-01T03:18:00.109Z,13.26
2023-03-01T03:20:29.120Z,13.24
2023-03-01T03:22:57.437Z,13.24
2023-03-01T03:25:24.903Z,13.25
2023-03-01T03:27:57.856Z,13.25
2023-03-01T03:30:30.775Z,13.23
2023-03-01T03:32:58.814Z,13.25
2023-03-01T03:35:33.809Z,13.23
2023-03-01T03:38:05.075Z,13.24
2023-03-01T03:40:50.020Z,13.22
2023-03-01T03:43:19.875Z,13.20
2023-03-01T03:45:47.775Z,13.19
2023-03-01T03:48:15.538Z,13.19
2023-03-01T03:50:42.748Z,13.18
2023-03-01T03:53:12.993Z,13.13
2023-03-01T03:55:40.540Z,13.12
2023-03-01T03:58:10.754Z,13.13
2023-03-01T04:00:43.567Z,13.14
2023-03-01T04:03:11.474Z,13.10
2023-03-01T04:05:39.402Z,13.09
2023-03-01T04:08:09.255Z,13.11
2023-03-01T04:10:39.157Z,13.09
2023-03-01T04:13:07.946Z,13.09
2023-03-01T04:15:34.812Z,13.10
2023-03-01T04:18:01.908Z,13.09
2023-03-01T04:20:31.807Z,13.09
2023-03-01T04:22:59.770Z,13.05
2023-03-01T04:25:26.821Z,13.05
2023-03-01T04:27:53.471Z,13.04
2023-03-01T04:30:20.474Z,13.05
2023-03-01T04:32:47.051Z,13.06
2023-03-01T04:35:13.689Z,13.05
2023-03-01T04:37:40.361Z,13.03
2023-03-01T04:40:16.886Z,13.03
2023-03-01T04:42:44.067Z,13.02
2023-03-01T04:45:16.851Z,13.00
2023-03-01T04:47:45.445Z,12.99
2023-03-01T04:50:14.499Z,13.02
2023-03-01T04:52:41.199Z,12.99
2023-03-01T04:55:08.388Z,12.99
2023-03-01T04:57:35.274Z,12.97
2023-03-01T05:00:02.330Z,12.98
2023-03-01T05:02:29.028Z,12.98
2023-03-01T05:04:58.630Z,12.94
2023-03-01T05:07:25.974Z,12.95
2023-03-01T05:09:54.732Z,12.97
2023-03-01T05:12:21.696Z,12.92
2023-03-01T05:14:48.317Z,12.93
2023-03-01T05:17:14.949Z,12.90
2023-03-01T05:19:43.732Z,12.91
2023-03-01T05:22:10.438Z,12.91
2023-03-01T05:24:37.537Z,12.88
2023-03-01T05:27:04.255Z,12.89
2023-03-01T05:29:32.422Z,12.88
2023-03-01T05:32:02.018Z,12.88
2023-03-01T05:34:31.848Z,12.87
2023-03-01T05:36:59.536Z,12.81
2023-03-01T05:39:28.782Z,12.86
2023-03-01T05:41:58.528Z,12.84
2023-03-01T05:44:26.481Z,12.82
2023-03-01T05:46:53.447Z,12.82
2023-03-01T05:49:20.100Z,12.81
2023-03-01T05:51:52.125Z,12.82
2023-03-01T05:54:19.691Z,12.79
2023-03-01T05:56:46.338Z,12.81
2023-03-01T05:59:13.082Z,12.78
2023-03-01T06:01:39.716Z,12.79
2023-03-01T06:04:06.754Z,12.79
2023-03-01T06:06:38.856Z,12.78
2023-03-01T06:09:08.409Z,12.77
2023-03-01T06:11:36.294Z,12.80
2023-03-01T06:14:03.311Z,12.75
2023-03-01T06:16:30.201Z,12.77
2023-03-01T06:18:56.967Z,12.77
2023-03-01T06:21:23.602Z,12.78
2023-03-01T06:23:50.728Z,12.78
2023-03-01T06:26:17.488Z,12.77
2023-03-01T06:28:47.172Z,12.79
2023-03-01T06:31:14.134Z,12.78
2023-03-01T06:33:40.852Z,12.79
2023-03-01T06:36:08.378Z,12.80
2023-03-01T06:38:35.274Z,12.78
2023-03-01T06:41:02.789Z,12.81
2023-03-01T06:43:29.485Z,12.80
2023-03-01T06:45:56.707Z,12.81
2023-03-01T06:48:23.366Z,12.83
2023-03-01T06:50:50.218Z,12.82
2023-03-01T06:53:16.967Z,12.87
2023-03-01T06:55:43.671Z,12.89
2023-03-01T06:58:10.507Z,12.90
2023-03-01T07:00:37.143Z,12.89
2023-03-01T07:03:04.466Z,12.91
2023-03-01T07:05:31.562Z,12.90
2023-03-01T07:07:58.463Z,12.92
2023-03-01T07:10:26.922Z,12.93
2023-03-01T07:12:59.270Z,12.96
2023-03-01T07:15:27.298Z,13.00
2023-03-01T07:17:54.126Z,13.01
2023-03-01T07:20:26.396Z,13.02
2023-03-01T07:22:54.563Z,13.04
2023-03-01T07:25:21.348Z,13.09
2023-03-01T07:27:52.581Z,13.09
2023-03-01T07:30:19.648Z,13.06
2023-03-01T07:32:47.074Z,13.11
2023-03-01T07:35:14.348Z,13.14
2023-03-01T07:37:40.960Z,13.15
2023-03-01T07:40:08.561Z,13.17
2023-03-01T07:42:35.254Z,13.19
2023-03-01T07:45:01.993Z,13.20
2023-03-01T07:47:28.760Z,13.21
2023-03-01T07:50:02.274Z,13.23
2023-03-01T07:52:29.549Z,13.25
2023-03-01T07:54:56.328Z,13.28
2023-03-01T07:57:26.112Z,13.28
2023-03-01T07:59:52.785Z,13.29
2023-03-01T08:02:20.043Z,13.32
2023-03-01T08:04:46.836Z,13.32
2023-03-01T08:07:13.651Z,13.36
2023-03-01T08:09:40.469Z,13.35
2023-03-01T08:12:07.400Z,13.39
2023-03-01T08:14:34.461Z,13.39
2023-03-01T08:17:01.818Z,13.40
2023-03-01T08:19:29.283Z,13.43
2023-03-01T08:21:59.347Z,13.45
2023-03-01T08:24:26.694Z,13.48
2023-03-01T08:26:53.989Z,13.48
2023-03-01T08:29:21.195Z,13.52
2023-03-01T08:31:52.252Z,13.55
2023-03-01T08:34:19.757Z,13.57
2023-03-01T08:36:47.657Z,13.59
2023-03-01T08:39:16.624Z,13.61
2023-03-01T08:41:45.962Z,13.63
2023-03-01T08:44:20.942Z,13.63
2023-03-01T08:46:48.199Z,13.61
2023-03-01T08:49:17.205Z,13.62
2023-03-01T08:51:45.334Z,13.61
2023-03-01T08:54:15.868Z,13.62
2023-03-01T08:56:42.750Z,13.63
2023-03-01T08:59:11.255Z,13.64
2023-03-01T09:01:38.215Z,13.66
2023-03-01T09:04:05.395Z,13.70
2023-03-01T09:06:35.198Z,13.73
2023-03-01T09:09:03.510Z,13.75
2023-03-01T09:11:30.732Z,13.76
2023-03-01T09:13:58.034Z,13.78
2023-03-01T09:16:25.310Z,13.78
2023-03-01T09:18:54.535Z,13.81
2023-03-01T09:21:38.670Z,13.82
2023-03-01T09:24:07.711Z,13.86
2023-03-01T09:26:34.463Z,13.87
2023-03-01T09:29:04.562Z,13.90
2023-03-01T09:31:31.466Z,13.91
2023-03-01T09:33:58.276Z,13.94
2023-03-01T09:36:26.634Z,13.94
2023-03-01T09:38:56.808Z,13.98
2023-03-01T09:41:23.565Z,13.98
2023-03-01T09:44:11.682Z,14.01
2023-03-01T09:46:46.404Z,14.04
2023-03-01T09:49:28.893Z,14.05
2023-03-01T09:52:20.414Z,14.07
2023-03-01T09:54:48.093Z,14.10
2023-03-01T09:57:25.761Z,14.12
2023-03-01T10:00:01.745Z,14.15
2023-03-01T10:02:39.976Z,14.17
2023-03-01T10:05:20.137Z,14.20
2023-03-01T10:08:02.106Z,14.20
2023-03-01T10:10:35.869Z,14.23
2023-03-01T10:13:17.207Z,14.25
2023-03-01T10:15:57.247Z,14.29
2023-03-01T10:18:28.965Z,14.30
2023-03-01T10:21:03.305Z,14.33
2023-03-01T10:23:33.683Z,14.36
2023-03-01T10:26:23.160Z,14.39
2023-03-01T10:29:03.641Z,14.41
2023-03-01T10:31:52.473Z,14.45
2023-03-01T10:34:38.899Z,14.49
2023-03-01T10:37:23.061Z,14.51
2023-03-01T10:40:13.172Z,14.55
2023-03-01T10:42:48.632Z,14.57
2023-03-01T10:45:35.980Z,14.60
2023-03-01T10:48:22.248Z,14.61
2023-03-01T10:51:08.934Z,14.64
2023-03-01T10:53:42.899Z,14.66
2023-03-01T10:56:16.672Z,14.68
2023-03-01T10:59:05.211Z,14.71
2023-03-01T11:01:36.489Z,14.73
2023-03-01T11:04:06.240Z,14.75
2023-03-01T11:06:34.510Z,14.79
2023-03-01T11:09:33.327Z,14.82
2023-03-01T11:12:01.838Z,14.85
2023-03-01T11:14:34.551Z,14.89
2023-03-01T11:17:12.691Z,14.93
2023-03-01T11:19:39.622Z,14.98
2023-03-01T11:22:21.188Z,15.02
2023-03-01T11:25:08.494Z,15.08
2023-03-01T11:27:44.307Z,15.16
2023-03-01T11:30:22.645Z,15.21
2023-03-01T11:33:11.709Z,15.25
2023-03-01T11:36:04.329Z,15.31
2023-03-01T11:38:38.239Z,15.36
2023-03-01T11:41:32.102Z,15.41
2023-03-01T11:44:13.279Z,15.46
2023-03-01T11:47:13.456Z,15.52
2023-03-01T11:50:03.003Z,15.57
2023-03-01T11:52:35.199Z,15.59
2023-03-01T11:55:24.988Z,15.64
2023-03-01T11:58:04.117Z,15.69
2023-03-01T12:01:29.106Z,15.73
2023-03-01T12:04:33.868Z,15.76
2023-03-01T12:07:19.275Z,15.82
2023-03-01T12:10:09.654Z,15.87
2023-03-01T12:13:04.326Z,15.92
2023-03-01T12:15:45.950Z,15.97
2023-03-01T12:18:24.791Z,16.02
2023-03-01T12:21:19.493Z,16.06
2023-03-01T12:24:16.236Z,16.12
2023-03-01T12:26:55.349Z,16.14
2023-03-01T12:29:40.029Z,16.17
2023-03-01T12:32:15.716Z,16.23
2023-03-01T12:35:03.469Z,16.25
2023-03-01T12:37:55.275Z,16.31
2023-03-01T12:40:28.055Z,16.30
2023-03-01T12:42:58.725Z,16.33
2023-03-01T12:45:35.967Z,16.26
2023-03-01T12:48:08.722Z,16.25
2023-03-01T12:50:43.877Z,16.19
2023-03-01T12:53:30.527Z,16.08
2023-03-01T12:56:08.309Z,15.99
2023-03-01T12:58:50.828Z,15.96
2023-03-01T13:01:37.293Z,15.83
2023-03-01T13:04:41.345Z,15.84
2023-03-01T13:07:32.688Z,15.82
2023-03-01T13:10:31.303Z,15.72
2023-03-01T13:12:58.195Z,15.70
2023-03-01T13:15:25.062Z,15.70
2023-03-01T13:17:55.786Z,15.71
2023-03-01T13:20:45.123Z,15.73
2023-03-01T13:23:24.382Z,15.83
2023-03-01T13:26:14.775Z,15.93
2023-03-01T13:28:50.703Z,16.10
2023-03-01T13:31:17.337Z,16.32
2023-03-01T13:33:51.572Z,16.42
2023-03-01T13:36:31.103Z,16.34
2023-03-01T13:39:02.998Z,16.37
2023-03-01T13:41:42.036Z,16.36
2023-03-01T13:44:23.919Z,16.29
2023-03-01T13:46:52.597Z,16.32
2023-03-01T13:49:35.599Z,16.41
2023-03-01T13:52:40.580Z,16.57
2023-03-01T13:55:19.406Z,16.70
2023-03-01T13:57:54.748Z,16.71
2023-03-01T14:00:38.577Z,16.66
2023-03-01T14:03:11.964Z,16.68
2023-03-01T14:05:40.598Z,16.67
2023-03-01T14:08:21.170Z,16.68
2023-03-01T14:10:55.925Z,16.67
2023-03-01T14:13:40.063Z,16.68
2023-03-01T14:16:06.861Z,16.66
2023-03-01T14:18:36.545Z,16.64
2023-03-01T14:21:08.986Z,16.64
2023-03-01T14:23:43.195Z,16.64
2023-03-01T14:26:13.097Z,16.66
2023-03-01T14:28:40.822Z,16.64
2023-03-01T14:31:29.352Z,16.66
2023-03-01T14:33:57.118Z,16.66
2023-03-01T14:36:41.798Z,16.65
2023-03-01T14:39:18.931Z,16.64
2023-03-01T14:41:46.307Z,16.63
2023-03-01T14:44:26.050Z,16.62
2023-03-01T14:46:56.161Z,16.65
2023-03-01T14:49:26.703Z,16.63
2023-03-01T14:51:58.458Z,16.61
2023-03-01T14:54:28.648Z,16.59
2023-03-01T14:57:00.817Z,16.61
2023-03-01T14:59:27.862Z,16.62
2023-03-01T15:01:57.367Z,16.60
2023-03-01T15:04:25.678Z,16.62
2023-03-01T15:06:53.234Z,16.62
2023-03-01T15:12:47.817Z,16.59
2023-03-01T15:15:31.023Z,16.58
2023-03-01T15:18:04.277Z,16.58
2023-03-01T15:20:36.407Z,16.58
2023-03-01T15:23:04.477Z,16.57
2023-03-01T15:25:33.573Z,16.57
2023-03-01T15:28:02.301Z,16.56
2023-03-01T15:34:23.764Z,16.55
2023-03-01T15:36:52.726Z,16.53
2023-03-01T15:39:44.527Z,16.54
2023-03-01T15:42:14.691Z,16.53
2023-03-01T15:44:47.831Z,16.54
2023-03-01T15:47:33.129Z,16.51
2023-03-01T15:50:01.932Z,16.50
2023-03-01T15:52:40.650Z,16.49
2023-03-01T15:55:17.339Z,16.48
2023-03-01T15:57:44.171Z,16.46
2023-03-01T16:00:14.523Z,16.42
2023-03-01T16:02:43.302Z,16.38
2023-03-01T16:05:21.312Z,16.37
2023-03-01T16:07:48.201Z,16.34
2023-03-01T16:10:15.219Z,16.32
2023-03-01T16:12:42.241Z,16.31
2023-03-01T16:15:21.539Z,16.27
2023-03-01T16:17:48.878Z,16.25
2023-03-01T16:20:27.617Z,16.23
2023-03-01T16:22:56.276Z,16.15
2023-03-01T16:25:23.580Z,16.08
2023-03-01T16:27:54.753Z,16.02
2023-03-01T16:30:41.109Z,15.98
2023-03-01T16:33:26.659Z,15.95
2023-03-01T16:36:04.105Z,15.92
2023-03-01T16:38:33.681Z,15.90
2023-03-01T16:41:00.646Z,15.88
2023-03-01T16:43:30.489Z,15.88
2023-03-01T16:45:58.074Z,15.86
2023-03-01T16:48:25.220Z,15.84
2023-03-01T16:51:00.605Z,15.81
2023-03-01T16:53:28.646Z,15.82
2023-03-01T16:55:59.647Z,15.81
2023-03-01T16:58:26.772Z,15.81
2023-03-01T17:00:54.932Z,15.78
2023-03-01T17:03:27.205Z,15.76
2023-03-01T17:05:54.228Z,15.72
2023-03-01T17:08:21.137Z,15.69
2023-03-01T17:10:48.595Z,15.67
2023-03-01T17:13:15.678Z,15.64
2023-03-01T17:15:42.993Z,15.61
2023-03-01T17:18:10.689Z,15.61
2023-03-01T17:20:37.745Z,15.57
2023-03-01T17:23:04.877Z,15.56
2023-03-01T17:25:32.135Z,15.53
2023-03-01T17:28:05.268Z,15.54
2023-03-01T17:30:32.281Z,15.53
2023-03-01T17:32:59.876Z,15.53
2023-03-01T17:35:26.952Z,15.52
2023-03-01T17:37:53.939Z,15.50
2023-03-01T17:40:20.985Z,15.48
2023-03-01T17:42:50.766Z,15.49
2023-03-01T17:45:20.727Z,15.48
2023-03-01T17:47:47.918Z,15.48
2023-03-01T17:50:15.124Z,15.44
2023-03-01T17:52:41.948Z,15.44
2023-03-01T17:55:10.433Z,15.44
2023-03-01T17:57:41.257Z,15.41
2023-03-01T18:00:13.152Z,15.39
2023-03-01T18:02:40.510Z,15.38
2023-03-01T18:05:08.123Z,15.36
2023-03-01T18:07:35.430Z,15.36
2023-03-01T18:10:02.325Z,15.34
2023-03-01T18:12:30.957Z,15.34
2023-03-01T18:14:58.485Z,15.32
2023-03-01T18:17:26.279Z,15.31
2023-03-01T18:19:53.312Z,15.32
2023-03-01T18:22:20.143Z,15.31
2023-03-01T18:24:47.054Z,15.01
2023-03-01T18:27:14.001Z,15.08
2023-03-01T18:29:40.862Z,15.14
2023-03-01T18:32:07.751Z,15.17
2023-03-01T18:34:35.227Z,15.18
2023-03-01T18:37:10.422Z,15.18
2023-03-01T18:39:38.274Z,15.18
2023-03-01T18:42:05.399Z,15.16
2023-03-01T18:44:32.801Z,15.16
2023-03-01T18:46:59.734Z,15.13
2023-03-01T18:49:27.076Z,15.13
2023-03-01T18:51:54.224Z,15.11
2023-03-01T18:54:21.304Z,15.13
2023-03-01T18:56:48.349Z,15.15
2023-03-01T18:59:15.423Z,15.11
2023-03-01T19:01:43.593Z,15.11
2023-03-01T19:04:11.752Z,15.12
2023-03-01T19:06:39.481Z,15.10
2023-03-01T19:09:08.490Z,15.12
2023-03-01T19:11:35.835Z,15.09
2023-03-01T19:14:02.979Z,15.09
2023-03-01T19:16:32.217Z,15.06
2023-03-01T19:19:05.158Z,15.07
2023-03-01T19:21:33.429Z,15.05
2023-03-01T19:24:02.614Z,15.05
2023-03-01T19:26:30.800Z,15.06
2023-03-01T19:28:57.971Z,15.06
2023-03-01T19:31:27.101Z,15.05
2023-03-01T19:33:59.576Z,15.03
2023-03-01T19:36:33.476Z,15.03
2023-03-01T19:39:02.685Z,15.01
2023-03-01T19:41:30.094Z,15.02
2023-03-01T19:43:58.328Z,15.01
2023-03-01T19:46:25.939Z,15.00
2023-03-01T19:48:54.312Z,14.99
2023-03-01T19:51:21.639Z,14.99
2023-03-01T19:53:48.576Z,14.98
2023-03-01T19:56:15.421Z,14.96
2023-03-01T19:58:43.493Z,14.97
2023-03-01T20:01:19.317Z,14.96
2023-03-01T20:03:46.754Z,14.94
2023-03-01T20:06:17.228Z,14.95
2023-03-01T20:08:44.843Z,14.93
2023-03-01T20:11:16.450Z,14.92
2023-03-01T20:13:43.408Z,14.91
2023-03-01T20:16:10.793Z,14.91
2023-03-01T20:18:38.352Z,14.90
2023-03-01T20:21:09.256Z,14.91
2023-03-01T20:23:45.437Z,14.88
2023-03-01T20:26:20.636Z,14.87
2023-03-01T20:28:50.046Z,14.87
2023-03-01T20:31:19.379Z,14.87
2023-03-01T20:33:46.703Z,14.85
2023-03-01T20:36:14.657Z,14.85
2023-03-01T20:38:41.495Z,14.83
2023-03-01T20:41:10.966Z,14.82
2023-03-01T20:43:42.542Z,14.80
2023-03-01T20:46:12.170Z,14.78
2023-03-01T20:48:43.375Z,14.76
2023-03-01T20:51:12.390Z,14.77
2023-03-01T20:53:39.771Z,14.78
2023-03-01T20:56:10.293Z,14.77
2023-03-01T20:58:38.076Z,14.76
2023-03-01T21:01:06.405Z,14.75
2023-03-01T21:03:33.754Z,14.74
2023-03-01T21:06:03.088Z,14.74
2023-03-01T21:08:30.992Z,14.71
2023-03-01T21:10:58.456Z,14.71
2023-03-01T21:13:32.279Z,14.70
2023-03-01T21:16:13.504Z,14.70
2023-03-01T21:18:41.034Z,14.70
2023-03-01T21:21:13.645Z,14.68
2023-03-01T21:23:42.588Z,14.67
2023-03-01T21:26:24.314Z,14.66
2023-03-01T21:28:55.918Z,14.65
2023-03-01T21:31:27.516Z,14.63
2023-03-01T21:33:57.123Z,14.62
2023-03-01T21:36:26.025Z,14.61
2023-03-01T21:38:53.857Z,14.62
2023-03-01T21:41:29.723Z,14.61
2023-03-01T21:44:00.797Z,14.59
2023-03-01T21:46:31.122Z,14.58
2023-03-01T21:48:58.946Z,14.56
2023-03-01T21:51:27.743Z,14.55
2023-03-01T21:53:55.952Z,14.55
2023-03-01T21:56:27.199Z,14.55
2023-03-01T21:58:54.571Z,14.51
2023-03-01T22:01:25.832Z,14.53
2023-03-01T22:03:53.391Z,14.54
2023-03-01T22:06:28.254Z,14.53
2023-03-01T22:09:10.350Z,14.52
2023-03-01T22:11:39.703Z,14.50
2023-03-01T22:14:07.316Z,14.50
2023-03-01T22:16:36.990Z,14.48
2023-03-01T22:19:05.496Z,14.50
2023-03-01T22:21:32.867Z,14.49
2023-03-01T22:24:00.353Z,14.44
2023-03-01T22:26:35.385Z,14.42
2023-03-01T22:29:05.321Z,14.43
2023-03-01T22:31:32.450Z,14.43
2023-03-01T22:33:59.431Z,14.43
2023-03-01T22:36:27.746Z,14.42
2023-03-01T22:39:00.426Z,14.43
2023-03-01T22:41:29.824Z,14.41
2023-03-01T22:43:57.082Z,14.39
2023-03-01T22:46:28.248Z,14.37
2023-03-01T22:48:59.278Z,14.37
2023-03-01T22:51:31.959Z,14.36
2023-03-01T22:53:59.485Z,14.37
2023-03-01T22:56:31.220Z,14.36
2023-03-01T22:58:59.645Z,14.38
2023-03-01T23:01:27.426Z,14.35
2023-03-01T23:03:54.619Z,14.35
2023-03-01T23:06:22.747Z,14.34
2023-03-01T23:08:55.753Z,14.35
2023-03-01T23:11:24.318Z,14.35
2023-03-01T23:13:53.483Z,14.35
2023-03-01T23:16:26.285Z,14.35
2023-03-01T23:18:55.121Z,14.31
2023-03-01T23:21:22.426Z,14.30
2023-03-01T23:23:49.328Z,14.31
2023-03-01T23:26:17.521Z,14.30
2023-03-01T23:28:44.749Z,14.28
2023-03-01T23:31:14.307Z,14.28
2023-03-01T23:33:43.412Z,14.27
2023-03-01T23:36:20.020Z,14.28
2023-03-01T23:38:47.907Z,14.26
2023-03-01T23:41:19.072Z,14.26
2023-03-01T23:43:50.577Z,14.28
2023-03-01T23:46:19.655Z,14.26
2023-03-01T23:48:46.925Z,14.25
2023-03-01T23:51:14.990Z,14.25
2023-03-01T23:53:54.943Z,14.25
2023-03-01T23:56:34.530Z,14.24
2023-03-01T23:59:04.264Z,14.23
